Time;durP1;ratioP1;P1;durP2;ratioP2;P2;SDS_P1;SDS_P2;PMS_P1;PMS_P2;Temp;Humidity;BMP_temperature;BMP_pressure;BME280_temperature;BME280_humidity;BME280_pressure;Samples;Min_cycle;Max_cycle;Signal;HPM_P1;HPM_P2
2021/11/19 00:00:45;;;;;;;1.30;1.20;;;10.30;99.90;;;;;;5050687;28;20469;-69
2021/11/19 00:03:12;;;;;;;0.70;0.50;;;10.30;99.90;;;;;;5051210;28;20428;-69
2021/11/19 00:05:38;;;;;;;1.67;1.53;;;10.20;99.90;;;;;;5049727;28;20466;-69
2021/11/19 00:08:04;;;;;;;2.50;1.20;;;10.30;99.90;;;;;;5051101;28;20441;-71
2021/11/19 00:10:31;;;;;;;3.23;2.30;;;10.30;99.90;;;;;;5053675;28;20444;-71
2021/11/19 00:12:56;;;;;;;1.70;1.13;;;10.30;99.90;;;;;;5054954;28;20421;-71
2021/11/19 00:15:22;;;;;;;0.70;0.57;;;10.30;99.90;;;;;;5054420;28;20433;-71
2021/11/19 00:17:48;;;;;;;1.00;0.90;;;10.30;99.90;;;;;;5055000;28;20186;-71
2021/11/19 00:20:17;;;;;;;1.63;1.33;;;10.30;99.90;;;;;;5054900;28;20452;-71
2021/11/19 00:22:43;;;;;;;1.47;1.37;;;10.30;99.90;;;;;;5055016;28;20432;-71
2021/11/19 00:25:09;;;;;;;1.30;1.20;;;10.30;99.90;;;;;;5054397;28;20421;-72
2021/11/19 00:27:37;;;;;;;1.63;0.70;;;10.40;99.90;;;;;;5054181;28;20430;-71
2021/11/19 00:30:06;;;;;;;2.10;1.10;;;10.40;99.90;;;;;;5053515;28;20202;-71
2021/11/19 00:32:32;;;;;;;0.80;0.60;;;10.40;99.90;;;;;;5054739;28;20503;-71
2021/11/19 00:34:57;;;;;;;1.87;1.57;;;10.40;99.90;;;;;;5054208;28;20920;-71
2021/11/19 00:37:23;;;;;;;1.60;1.50;;;10.40;99.90;;;;;;5054725;28;20587;-71
2021/11/19 00:39:49;;;;;;;2.23;1.00;;;10.30;99.90;;;;;;5054518;28;20675;-71
2021/11/19 00:42:15;;;;;;;2.60;2.40;;;10.30;99.90;;;;;;5054488;28;20190;-71
2021/11/19 00:44:40;;;;;;;0.70;0.60;;;10.30;99.90;;;;;;5054309;28;20421;-71
2021/11/19 00:47:07;;;;;;;0.90;0.80;;;10.30;99.90;;;;;;5054161;28;20171;-71
2021/11/19 00:49:37;;;;;;;0.70;0.60;;;10.30;99.90;;;;;;5054405;28;20567;-71
2021/11/19 00:52:04;;;;;;;5.50;3.77;;;10.20;99.90;;;;;;5054411;28;20425;-72
2021/11/19 00:54:30;;;;;;;1.37;1.27;;;10.20;99.90;;;;;;5054346;28;20413;-71
2021/11/19 00:57:00;;;;;;;1.53;1.43;;;10.20;99.90;;;;;;5053559;28;20472;-71
2021/11/19 00:59:28;;;;;;;0.70;0.50;;;10.30;99.90;;;;;;5054074;28;20438;-71
2021/11/19 01:01:57;;;;;;;1.60;1.50;;;10.30;99.90;;;;;;5054310;28;20777;-71
2021/11/19 01:04:23;;;;;;;0.90;0.70;;;10.30;99.90;;;;;;5054246;28;20413;-71
2021/11/19 01:06:50;;;;;;;0.70;0.60;;;10.30;99.90;;;;;;5052311;28;20826;-71
2021/11/19 01:09:25;;;;;;;1.90;0.90;;;10.30;99.90;;;;;;5054065;28;20441;-71
2021/11/19 01:11:53;;;;;;;2.30;2.10;;;10.30;99.90;;;;;;5053940;28;20459;-72
2021/11/19 01:14:26;;;;;;;1.27;0.90;;;10.30;99.90;;;;;;5053802;28;20432;-71
2021/11/19 01:16:59;;;;;;;1.43;1.33;;;10.40;99.90;;;;;;5053542;28;20449;-71
2021/11/19 01:19:54;;;;;;;0.70;0.50;;;10.40;99.90;;;;;;5053683;28;20445;-72
2021/11/19 01:22:25;;;;;;;0.70;0.60;;;10.40;99.90;;;;;;5052794;28;20425;-71
2021/11/19 01:24:50;;;;;;;8.33;1.47;;;10.30;99.90;;;;;;5053418;28;20424;-71
2021/11/19 01:27:16;;;;;;;0.87;0.60;;;10.40;99.90;;;;;;5053563;28;20786;-71
2021/11/19 01:29:42;;;;;;;0.70;0.50;;;10.40;99.90;;;;;;5053423;28;20198;-71
2021/11/19 01:32:12;;;;;;;1.20;0.80;;;10.50;99.90;;;;;;5053713;28;20432;-71
2021/11/19 01:34:38;;;;;;;2.30;2.10;;;10.50;99.90;;;;;;5053626;28;20425;-71
2021/11/19 01:37:05;;;;;;;2.40;2.30;;;10.40;99.90;;;;;;5053465;28;20927;-71
2021/11/19 01:39:33;;;;;;;0.70;0.50;;;10.50;99.90;;;;;;5053406;28;20547;-72
2021/11/19 01:42:05;;;;;;;0.80;0.70;;;10.40;99.90;;;;;;5053612;28;20938;-71
2021/11/19 01:44:38;;;;;;;0.70;0.60;;;10.40;99.90;;;;;;5053403;28;20772;-71
2021/11/19 01:47:08;;;;;;;0.80;0.80;;;10.40;99.90;;;;;;5051836;28;20472;-72
2021/11/19 01:49:34;;;;;;;2.67;1.00;;;10.40;99.90;;;;;;5053208;28;20472;-71
2021/11/19 01:52:04;;;;;;;2.07;1.20;;;10.40;99.90;;;;;;5053405;28;20445;-71
2021/11/19 01:54:44;;;;;;;2.20;1.27;;;10.40;99.90;;;;;;5053189;28;20421;-71
2021/11/19 01:57:26;;;;;;;1.47;1.37;;;10.40;99.90;;;;;;5052725;28;20436;-71
2021/11/19 01:59:56;;;;;;;0.80;0.70;;;10.30;99.90;;;;;;5052798;28;20953;-71
2021/11/19 02:02:31;;;;;;;2.30;1.57;;;10.30;99.90;;;;;;5052674;28;20421;-72
2021/11/19 02:05:10;;;;;;;0.70;0.50;;;10.30;99.90;;;;;;5052554;28;20866;-71
2021/11/19 02:07:44;;;;;;;0.93;0.80;;;10.30;99.90;;;;;;5052850;28;20847;-71
2021/11/19 02:10:36;;;;;;;1.17;0.70;;;10.20;99.90;;;;;;5053005;28;20441;-71
2021/11/19 02:13:10;;;;;;;1.57;1.13;;;10.20;99.90;;;;;;5043921;28;20508;-71
2021/11/19 02:15:57;;;;;;;1.13;1.03;;;10.20;99.90;;;;;;5051167;28;20429;-71
2021/11/19 02:18:35;;;;;;;0.70;0.50;;;10.30;99.90;;;;;;5053684;28;20430;-71
2021/11/19 02:21:09;;;;;;;1.63;1.13;;;10.30;99.90;;;;;;5052606;28;20459;-71
2021/11/19 02:23:40;;;;;;;0.70;0.50;;;10.20;99.90;;;;;;5052672;28;20899;-71
2021/11/19 02:26:12;;;;;;;1.37;0.70;;;10.20;99.90;;;;;;5052112;28;20413;-71
2021/11/19 02:28:39;;;;;;;1.43;0.90;;;10.20;99.90;;;;;;5052438;28;20822;-71
2021/11/19 02:31:25;;;;;;;0.90;0.90;;;10.20;99.90;;;;;;5052160;28;20915;-71
2021/11/19 02:33:53;;;;;;;0.80;0.50;;;10.20;99.90;;;;;;5007476;28;20429;-71
2021/11/19 02:36:24;;;;;;;1.47;1.37;;;10.20;99.90;;;;;;5051938;28;20818;-71
2021/11/19 02:39:08;;;;;;;0.83;0.83;;;10.30;99.90;;;;;;5052262;28;20528;-71
2021/11/19 02:41:36;;;;;;;0.70;0.60;;;10.20;99.90;;;;;;5052362;28;20461;-72
2021/11/19 02:44:08;;;;;;;1.90;0.93;;;10.20;99.90;;;;;;5052027;28;20777;-71
2021/11/19 02:46:37;;;;;;;3.47;3.27;;;10.20;99.90;;;;;;5051998;28;20426;-71
2021/11/19 02:49:04;;;;;;;0.70;0.50;;;10.20;99.90;;;;;;5052062;28;20445;-71
2021/11/19 02:51:30;;;;;;;1.33;1.23;;;10.10;99.90;;;;;;5051869;28;20490;-71
2021/11/19 02:53:56;;;;;;;3.33;1.93;;;10.10;99.90;;;;;;5051991;28;20460;-71
2021/11/19 02:56:23;;;;;;;0.90;0.90;;;10.10;99.90;;;;;;5051851;28;20473;-71
2021/11/19 02:58:53;;;;;;;0.80;0.70;;;10.10;99.90;;;;;;5051936;28;20437;-71
2021/11/19 03:01:27;;;;;;;0.80;0.80;;;10.10;99.90;;;;;;5051835;28;20518;-71
2021/11/19 03:04:07;;;;;;;1.17;0.77;;;10.00;99.90;;;;;;5051968;28;20772;-72
2021/11/19 03:07:00;;;;;;;2.83;2.37;;;10.00;99.90;;;;;;5051360;28;20463;-71
2021/11/19 03:09:36;;;;;;;2.60;1.67;;;10.00;99.90;;;;;;5048778;28;20908;-71
2021/11/19 03:12:03;;;;;;;2.50;2.00;;;10.00;99.90;;;;;;5051602;28;20483;-72
2021/11/19 03:14:30;;;;;;;0.83;0.83;;;10.00;99.90;;;;;;5051824;28;20442;-71
2021/11/19 03:16:56;;;;;;;2.63;0.87;;;10.00;99.90;;;;;;5051375;28;20786;-71
2021/11/19 03:19:22;;;;;;;0.90;0.80;;;10.00;99.90;;;;;;5051121;28;20512;-71
2021/11/19 03:21:49;;;;;;;0.70;0.50;;;10.00;99.90;;;;;;5052923;28;20555;-71
2021/11/19 03:24:16;;;;;;;0.70;0.50;;;10.00;99.90;;;;;;5052071;28;20444;-71
2021/11/19 03:26:42;;;;;;;10.00;2.03;;;9.90;99.90;;;;;;5051673;28;20474;-71
2021/11/19 03:29:10;;;;;;;1.90;1.80;;;10.00;99.90;;;;;;5052530;28;20429;-71
2021/11/19 03:31:37;;;;;;;2.60;2.50;;;10.00;99.90;;;;;;5051530;28;20428;-72
2021/11/19 03:34:02;;;;;;;1.47;1.40;;;10.00;99.90;;;;;;5051904;28;20425;-72
2021/11/19 03:36:28;;;;;;;1.70;1.60;;;10.00;99.90;;;;;;5051297;28;20425;-71
2021/11/19 03:38:56;;;;;;;0.80;0.70;;;10.00;99.90;;;;;;5050931;28;20640;-71
2021/11/19 03:41:25;;;;;;;0.70;0.43;;;10.00;99.90;;;;;;5051456;28;20268;-71
2021/11/19 03:43:57;;;;;;;0.70;0.60;;;10.00;99.90;;;;;;5051530;28;20476;-71
2021/11/19 03:46:28;;;;;;;0.70;0.60;;;10.00;99.90;;;;;;5055350;28;20421;-71
2021/11/19 03:48:53;;;;;;;1.00;0.73;;;10.00;99.90;;;;;;5056406;28;20531;-71
2021/11/19 03:51:29;;;;;;;0.80;0.77;;;10.00;99.90;;;;;;5057389;28;20926;-72
2021/11/19 03:53:55;;;;;;;0.80;0.70;;;10.00;99.90;;;;;;5057740;28;20174;-72
2021/11/19 03:56:21;;;;;;;1.57;1.00;;;10.00;99.90;;;;;;5055838;28;20444;-72
2021/11/19 03:58:47;;;;;;;0.77;0.70;;;10.10;99.90;;;;;;5058013;28;20454;-72
2021/11/19 04:01:21;;;;;;;0.70;0.70;;;10.10;99.90;;;;;;5056511;28;20465;-72
2021/11/19 04:03:48;;;;;;;1.30;1.20;;;10.00;99.90;;;;;;5057696;28;20425;-72
2021/11/19 04:06:15;;;;;;;0.73;0.60;;;10.00;99.90;;;;;;5057853;28;20413;-72
2021/11/19 04:08:41;;;;;;;1.43;1.27;;;10.00;99.90;;;;;;5056400;28;20424;-71
2021/11/19 04:11:08;;;;;;;1.13;1.00;;;10.00;99.90;;;;;;5053533;28;20421;-71
2021/11/19 04:13:34;;;;;;;1.17;1.07;;;10.00;99.90;;;;;;5055051;28;20209;-71
2021/11/19 04:16:04;;;;;;;7.30;1.07;;;10.00;99.90;;;;;;5054332;28;20926;-72
2021/11/19 04:18:29;;;;;;;0.83;0.83;;;10.00;99.90;;;;;;5055609;28;20425;-72
2021/11/19 04:20:56;;;;;;;3.07;2.87;;;10.00;99.90;;;;;;5056391;28;20462;-72
2021/11/19 04:23:24;;;;;;;0.90;0.77;;;10.10;99.90;;;;;;5057701;28;20178;-72
2021/11/19 04:25:51;;;;;;;2.50;0.90;;;10.10;99.90;;;;;;5057091;28;20928;-71
2021/11/19 04:28:16;;;;;;;0.80;0.70;;;10.10;99.90;;;;;;5057035;28;20494;-71
2021/11/19 04:30:45;;;;;;;2.00;1.90;;;10.00;99.90;;;;;;5057322;28;20451;-71
2021/11/19 04:33:11;;;;;;;1.00;0.73;;;10.10;99.90;;;;;;5056934;28;20489;-71
2021/11/19 04:35:37;;;;;;;0.70;0.60;;;10.10;99.90;;;;;;5056730;28;20427;-72
2021/11/19 04:38:04;;;;;;;2.37;2.27;;;10.00;99.90;;;;;;5055648;28;20187;-72
2021/11/19 04:40:33;;;;;;;1.37;1.17;;;10.00;99.90;;;;;;5054269;28;20663;-71
2021/11/19 04:42:59;;;;;;;0.90;0.70;;;10.00;99.90;;;;;;5054196;28;20918;-72
2021/11/19 04:45:27;;;;;;;1.53;1.43;;;10.00;99.90;;;;;;5055533;28;20421;-72
2021/11/19 04:47:54;;;;;;;1.27;1.17;;;10.10;99.90;;;;;;5055691;28;20204;-71
2021/11/19 04:50:23;;;;;;;1.67;1.17;;;10.10;99.90;;;;;;5054457;28;20437;-71
2021/11/19 04:52:50;;;;;;;0.80;0.50;;;10.10;99.90;;;;;;5054360;28;20927;-72
2021/11/19 04:55:17;;;;;;;3.50;0.73;;;10.10;99.90;;;;;;5053887;28;20433;-72
2021/11/19 04:57:43;;;;;;;8.53;2.70;;;10.10;99.90;;;;;;5054143;28;20433;-71
2021/11/19 05:00:14;;;;;;;0.70;0.50;;;10.10;99.90;;;;;;5054425;28;20463;-72
2021/11/19 05:02:39;;;;;;;2.30;1.43;;;10.10;99.90;;;;;;5055219;28;20414;-72
2021/11/19 05:05:05;;;;;;;0.70;0.50;;;10.10;99.90;;;;;;5054764;28;20463;-71
2021/11/19 05:07:31;;;;;;;3.70;3.53;;;10.10;99.90;;;;;;5055279;28;20163;-71
2021/11/19 05:09:57;;;;;;;2.00;1.90;;;10.10;99.90;;;;;;5054461;28;20449;-72
2021/11/19 05:12:29;;;;;;;0.73;0.67;;;10.10;99.90;;;;;;5054434;28;20206;-71
2021/11/19 05:14:55;;;;;;;1.07;0.97;;;10.10;99.90;;;;;;5052299;28;20186;-71
2021/11/19 05:17:23;;;;;;;2.50;1.60;;;10.10;99.90;;;;;;5053755;28;20447;-71
2021/11/19 05:19:50;;;;;;;2.33;2.23;;;10.10;99.90;;;;;;5056270;28;20824;-72
2021/11/19 05:22:15;;;;;;;0.70;0.57;;;10.10;99.90;;;;;;5054185;28;20425;-71
2021/11/19 05:24:41;;;;;;;0.70;0.60;;;10.10;99.90;;;;;;5053840;28;20798;-71
2021/11/19 05:27:07;;;;;;;2.30;2.03;;;10.10;99.90;;;;;;5054036;28;20169;-72
2021/11/19 05:29:33;;;;;;;2.00;1.90;;;10.20;99.90;;;;;;5059728;28;20197;-72
2021/11/19 05:31:59;;;;;;;5.20;1.23;;;10.20;99.90;;;;;;5064007;28;21042;-72
2021/11/19 05:34:26;;;;;;;1.50;1.40;;;10.20;99.90;;;;;;5054518;28;20413;-71
2021/11/19 05:36:51;;;;;;;1.10;0.80;;;10.20;99.90;;;;;;5054648;28;20540;-72
2021/11/19 05:39:18;;;;;;;2.73;0.80;;;10.20;99.90;;;;;;5055475;28;20444;-72
2021/11/19 05:41:44;;;;;;;1.23;1.03;;;10.20;99.90;;;;;;5054683;28;20203;-71
2021/11/19 05:44:11;;;;;;;2.60;1.23;;;10.20;99.90;;;;;;5052225;28;21306;-71
2021/11/19 05:46:40;;;;;;;0.77;0.73;;;10.20;99.90;;;;;;5053868;28;20417;-71
2021/11/19 05:49:13;;;;;;;0.70;0.60;;;10.20;99.90;;;;;;5055361;28;20433;-72
2021/11/19 05:51:40;;;;;;;0.70;0.57;;;10.30;99.90;;;;;;5054093;28;20429;-71
2021/11/19 05:54:08;;;;;;;0.93;0.93;;;10.30;99.90;;;;;;5053191;28;20405;-71
2021/11/19 05:56:35;;;;;;;0.80;0.60;;;10.20;99.90;;;;;;5054657;28;20430;-72
2021/11/19 05:59:01;;;;;;;0.90;0.70;;;10.30;99.90;;;;;;5055444;28;20445;-72
2021/11/19 06:01:27;;;;;;;1.67;1.23;;;10.30;99.90;;;;;;5054968;28;20554;-72
2021/11/19 06:03:52;;;;;;;3.53;1.17;;;10.20;99.90;;;;;;5053662;28;20167;-72
2021/11/19 06:06:19;;;;;;;1.13;1.03;;;10.30;99.90;;;;;;5054036;28;20953;-71
2021/11/19 06:08:45;;;;;;;2.10;1.27;;;10.30;99.90;;;;;;5053256;28;20465;-71
2021/11/19 06:11:21;;;;;;;0.80;0.80;;;10.40;99.90;;;;;;5054273;28;20817;-71
2021/11/19 06:13:55;;;;;;;1.57;0.87;;;10.40;99.90;;;;;;5054664;28;20170;-72
2021/11/19 06:16:42;;;;;;;0.90;0.60;;;10.40;99.90;;;;;;5039541;28;20429;-72
2021/11/19 06:19:10;;;;;;;6.63;0.90;;;10.50;99.90;;;;;;5053653;28;20611;-72
2021/11/19 06:21:48;;;;;;;0.70;0.50;;;10.50;99.90;;;;;;5054142;28;20457;-71
2021/11/19 06:24:22;;;;;;;1.50;1.40;;;10.50;99.90;;;;;;5052688;28;20840;-71
2021/11/19 06:26:49;;;;;;;0.70;0.60;;;10.50;99.90;;;;;;5055725;28;20805;-72
2021/11/19 06:29:15;;;;;;;3.17;1.37;;;10.50;99.90;;;;;;5059512;28;20436;-72
2021/11/19 06:31:43;;;;;;;0.70;0.50;;;10.50;99.90;;;;;;5058107;28;20503;-72
2021/11/19 06:34:10;;;;;;;1.10;0.70;;;10.50;99.90;;;;;;5055858;28;20416;-72
2021/11/19 06:36:35;;;;;;;1.07;1.07;;;10.40;99.90;;;;;;5056088;28;20417;-72
2021/11/19 06:39:04;;;;;;;1.73;1.63;;;10.40;99.90;;;;;;5053548;28;20794;-72
2021/11/19 06:41:30;;;;;;;1.83;1.73;;;10.50;99.90;;;;;;5052223;28;20202;-72
2021/11/19 06:43:55;;;;;;;0.77;0.70;;;10.50;99.90;;;;;;5052311;28;20421;-72
2021/11/19 06:46:22;;;;;;;0.70;0.50;;;10.50;99.90;;;;;;5052507;28;20420;-72
2021/11/19 06:48:49;;;;;;;1.63;1.03;;;10.50;99.90;;;;;;5052843;28;20302;-72
2021/11/19 06:51:16;;;;;;;2.13;0.90;;;10.40;99.90;;;;;;5054707;28;20428;-71
2021/11/19 06:53:43;;;;;;;0.90;0.90;;;10.40;99.90;;;;;;5053075;28;20429;-72
2021/11/19 06:56:09;;;;;;;1.83;0.90;;;10.40;99.90;;;;;;5052711;28;20506;-72
2021/11/19 06:58:35;;;;;;;2.30;1.00;;;10.40;99.90;;;;;;5052439;28;20433;-72
2021/11/19 07:01:02;;;;;;;1.17;1.07;;;10.40;99.90;;;;;;5052822;28;20522;-72
2021/11/19 07:03:28;;;;;;;3.53;1.83;;;10.40;99.90;;;;;;5052176;28;21091;-71
2021/11/19 07:05:55;;;;;;;0.83;0.83;;;10.40;99.90;;;;;;5058073;28;20417;-71
2021/11/19 07:08:21;;;;;;;0.93;0.83;;;10.40;99.90;;;;;;5056523;28;20417;-72
2021/11/19 07:10:52;;;;;;;4.20;1.27;;;10.40;99.90;;;;;;5057515;28;20520;-72
2021/11/19 07:13:18;;;;;;;0.90;0.60;;;10.40;99.90;;;;;;5054584;28;20421;-72
2021/11/19 07:15:44;;;;;;;0.70;0.60;;;10.40;99.90;;;;;;5054359;28;20498;-72
2021/11/19 07:18:10;;;;;;;9.60;2.30;;;10.40;99.90;;;;;;5052951;28;20839;-72
2021/11/19 07:20:37;;;;;;;0.80;0.70;;;10.40;99.90;;;;;;5041617;28;20517;-72
2021/11/19 07:23:03;;;;;;;0.70;0.60;;;10.40;99.90;;;;;;5063050;28;20417;-72
2021/11/19 07:25:31;;;;;;;0.80;0.80;;;10.40;99.90;;;;;;5052016;28;20416;-72
2021/11/19 07:27:59;;;;;;;0.90;0.80;;;10.40;99.90;;;;;;5051489;28;20494;-72
2021/11/19 07:30:31;;;;;;;1.00;0.90;;;10.40;99.90;;;;;;5052024;28;20433;-71
2021/11/19 07:32:57;;;;;;;1.33;1.23;;;10.40;99.90;;;;;;5054463;28;20436;-72
2021/11/19 07:35:23;;;;;;;1.57;1.37;;;10.40;99.90;;;;;;5053697;28;20431;-71
2021/11/19 07:37:49;;;;;;;1.57;1.00;;;10.40;99.90;;;;;;5054199;28;20181;-72
2021/11/19 07:40:18;;;;;;;0.70;0.60;;;10.40;99.90;;;;;;5053731;28;20509;-72
2021/11/19 07:42:43;;;;;;;2.00;1.23;;;10.40;99.90;;;;;;5052344;28;20420;-71
2021/11/19 07:45:10;;;;;;;1.57;1.43;;;10.50;99.90;;;;;;5050896;28;20776;-72
2021/11/19 07:47:37;;;;;;;0.70;0.50;;;10.40;99.90;;;;;;5053117;28;20167;-72
2021/11/19 07:50:06;;;;;;;1.37;1.17;;;10.50;99.90;;;;;;5053887;28;20483;-71
2021/11/19 07:52:31;;;;;;;1.00;0.73;;;10.50;99.90;;;;;;5053727;28;20417;-72
2021/11/19 07:54:57;;;;;;;0.80;0.70;;;10.60;99.90;;;;;;5050634;28;20563;-72
2021/11/19 07:57:22;;;;;;;0.80;0.70;;;10.60;99.90;;;;;;5051659;28;20189;-72
2021/11/19 07:59:49;;;;;;;1.03;0.93;;;10.60;99.90;;;;;;5051880;28;20186;-72
2021/11/19 08:02:15;;;;;;;1.23;0.70;;;10.60;99.90;;;;;;5051877;28;20190;-72
2021/11/19 08:04:41;;;;;;;1.80;1.70;;;10.50;99.90;;;;;;5051952;28;20402;-72
2021/11/19 08:07:08;;;;;;;0.70;0.50;;;10.50;99.90;;;;;;5051601;28;20250;-72
2021/11/19 08:09:35;;;;;;;4.77;1.80;;;10.50;99.90;;;;;;5051110;28;20528;-72
2021/11/19 08:12:01;;;;;;;0.70;0.50;;;10.60;99.90;;;;;;5064137;28;20499;-72
2021/11/19 08:14:26;;;;;;;2.97;1.27;;;10.50;99.90;;;;;;5054607;28;20401;-72
2021/11/19 08:17:08;;;;;;;2.50;1.23;;;10.60;99.90;;;;;;5052200;28;20464;-71
2021/11/19 08:19:39;;;;;;;1.47;1.37;;;10.60;99.90;;;;;;5038064;28;20202;-71
2021/11/19 08:22:05;;;;;;;0.80;0.60;;;10.60;99.90;;;;;;5050142;28;20437;-71
2021/11/19 08:24:31;;;;;;;0.70;0.53;;;10.70;99.90;;;;;;5053618;28;20785;-72
2021/11/19 08:27:03;;;;;;;1.20;0.77;;;10.70;99.90;;;;;;5053073;28;20682;-71
2021/11/19 08:29:31;;;;;;;0.70;0.70;;;10.70;99.90;;;;;;5050542;28;20477;-71
2021/11/19 08:31:58;;;;;;;0.80;0.60;;;10.70;99.90;;;;;;5045192;28;20520;-71
2021/11/19 08:34:24;;;;;;;1.23;0.60;;;10.80;99.90;;;;;;5055206;28;20402;-72
2021/11/19 08:36:50;;;;;;;0.70;0.53;;;10.80;99.90;;;;;;5054870;28;20398;-72
2021/11/19 08:39:19;;;;;;;0.70;0.50;;;10.70;99.90;;;;;;5055098;28;20488;-71
2021/11/19 08:41:46;;;;;;;3.93;1.30;;;10.70;99.90;;;;;;5056272;28;20531;-72
2021/11/19 08:44:12;;;;;;;0.70;0.53;;;10.80;99.90;;;;;;5055780;28;20474;-71
2021/11/19 08:46:41;;;;;;;1.30;1.20;;;10.80;99.90;;;;;;5054327;28;20398;-70
2021/11/19 08:49:09;;;;;;;1.03;0.83;;;10.80;99.90;;;;;;5054822;28;20437;-72
2021/11/19 08:51:36;;;;;;;1.20;0.97;;;10.80;99.90;;;;;;5054892;28;20445;-71
2021/11/19 08:54:05;;;;;;;0.97;0.97;;;10.80;99.90;;;;;;5055157;28;20421;-72
2021/11/19 08:56:33;;;;;;;0.93;0.93;;;10.80;99.90;;;;;;5054583;28;20519;-72
2021/11/19 08:59:00;;;;;;;1.00;0.90;;;10.90;99.90;;;;;;5054918;28;20474;-71
2021/11/19 09:01:25;;;;;;;2.20;2.10;;;10.90;99.90;;;;;;5054029;28;20464;-72
2021/11/19 09:03:51;;;;;;;1.83;0.83;;;10.90;99.90;;;;;;5054675;28;20437;-71
2021/11/19 09:06:18;;;;;;;0.70;0.60;;;10.90;99.90;;;;;;5053861;28;20751;-71
2021/11/19 09:08:45;;;;;;;1.17;0.90;;;11.00;99.90;;;;;;5054018;28;20226;-71
2021/11/19 09:11:14;;;;;;;1.00;0.87;;;11.00;99.90;;;;;;5040745;28;20424;-71
2021/11/19 09:13:40;;;;;;;0.93;0.83;;;11.10;99.90;;;;;;5056320;28;20437;-71
2021/11/19 09:16:08;;;;;;;6.83;1.67;;;11.10;99.90;;;;;;5055009;28;20782;-72
2021/11/19 09:19:01;;;;;;;2.03;1.83;;;11.10;99.90;;;;;;5056257;28;20432;-71
2021/11/19 09:21:32;;;;;;;0.70;0.50;;;11.10;99.90;;;;;;5042047;28;20457;-71
2021/11/19 09:24:00;;;;;;;0.90;0.90;;;11.10;99.90;;;;;;5055730;28;20926;-71
2021/11/19 09:26:34;;;;;;;0.70;0.60;;;11.20;99.90;;;;;;5054718;28;20759;-71
2021/11/19 09:29:03;;;;;;;2.00;1.90;;;11.20;99.90;;;;;;5056500;28;20787;-72
2021/11/19 09:31:29;;;;;;;0.70;0.70;;;11.10;99.90;;;;;;5056338;28;20429;-71
2021/11/19 09:33:55;;;;;;;0.80;0.70;;;11.20;99.90;;;;;;5056812;28;20471;-72
2021/11/19 09:36:21;;;;;;;1.90;1.80;;;11.10;99.90;;;;;;5055494;28;20206;-71
2021/11/19 09:38:47;;;;;;;0.70;0.50;;;11.20;99.90;;;;;;5055843;28;20783;-71
2021/11/19 09:41:36;;;;;;;1.40;0.93;;;11.20;99.90;;;;;;5056296;28;20198;-72
2021/11/19 09:44:33;;;;;;;0.83;0.67;;;11.30;99.90;;;;;;5054918;28;20484;-72
2021/11/19 09:47:10;;;;;;;0.90;0.60;;;11.30;99.90;;;;;;5054952;28;20440;-71
2021/11/19 09:50:22;;;;;;;1.03;1.03;;;11.40;99.90;;;;;;5056101;28;20433;-72
2021/11/19 09:52:51;;;;;;;9.60;3.20;;;11.30;99.90;;;;;;4985989;28;20957;-71
2021/11/19 09:55:25;;;;;;;1.43;1.33;;;11.30;99.90;;;;;;5048028;28;20444;-71
2021/11/19 09:58:23;;;;;;;1.83;1.23;;;11.30;99.90;;;;;;5055873;28;20427;-72
2021/11/19 10:01:13;;;;;;;0.93;0.77;;;11.20;99.90;;;;;;5056436;28;20815;-71
2021/11/19 10:03:54;;;;;;;1.27;1.00;;;11.20;99.90;;;;;;5056164;28;20436;-70
2021/11/19 10:06:39;;;;;;;1.13;1.03;;;11.30;99.90;;;;;;5054221;28;20954;-70
2021/11/19 10:09:21;;;;;;;2.10;0.87;;;11.20;99.90;;;;;;5055169;28;20527;-71
2021/11/19 10:11:59;;;;;;;1.07;0.60;;;11.30;99.90;;;;;;5055460;28;20425;-70
2021/11/19 10:14:34;;;;;;;0.70;0.57;;;11.30;99.90;;;;;;5055165;28;20431;-70
2021/11/19 10:17:03;;;;;;;1.73;1.40;;;11.20;99.90;;;;;;5054937;28;20976;-71
2021/11/19 10:19:37;;;;;;;0.70;0.60;;;11.20;99.90;;;;;;5054000;28;20448;-71
2021/11/19 10:22:12;;;;;;;0.80;0.80;;;11.20;99.90;;;;;;5055031;28;20468;-71
2021/11/19 10:24:45;;;;;;;0.80;0.63;;;11.20;99.90;;;;;;5055366;28;20504;-70
2021/11/19 10:27:15;;;;;;;0.80;0.80;;;11.20;99.90;;;;;;5055773;28;20427;-70
2021/11/19 10:30:07;;;;;;;0.90;0.67;;;11.10;99.90;;;;;;5055960;28;20441;-71
2021/11/19 10:32:33;;;;;;;0.80;0.60;;;11.10;99.90;;;;;;5049507;28;20771;-70
2021/11/19 10:35:29;;;;;;;1.60;1.40;;;11.10;99.90;;;;;;5055070;28;20475;-70
2021/11/19 10:38:01;;;;;;;1.23;1.13;;;11.10;99.90;;;;;;5052855;28;20409;-71
2021/11/19 10:40:49;;;;;;;1.00;0.70;;;11.20;99.90;;;;;;5049109;28;20455;-71
2021/11/19 10:43:32;;;;;;;4.97;1.63;;;11.20;99.90;;;;;;5055820;28;20940;-70
2021/11/19 10:46:22;;;;;;;0.70;0.60;;;11.20;99.90;;;;;;5054307;28;20495;-70
2021/11/19 10:48:57;;;;;;;0.77;0.73;;;11.30;99.90;;;;;;5052306;28;20458;-71
2021/11/19 10:51:56;;;;;;;0.70;0.50;;;11.30;99.90;;;;;;5062589;28;20426;-71
2021/11/19 10:54:40;;;;;;;1.83;1.47;;;11.30;99.90;;;;;;5047128;28;20413;-70
2021/11/19 10:57:39;;;;;;;1.47;1.37;;;11.40;99.90;;;;;;5052147;28;20429;-70
2021/11/19 11:00:22;;;;;;;0.90;0.70;;;11.40;99.90;;;;;;5046723;28;20846;-70
2021/11/19 11:02:51;;;;;;;1.00;0.90;;;11.40;99.90;;;;;;5053733;28;20452;-70
2021/11/19 11:05:34;;;;;;;1.10;0.70;;;11.50;99.90;;;;;;5054493;28;20421;-70
2021/11/19 11:08:10;;;;;;;1.57;1.10;;;11.50;99.90;;;;;;5061086;28;20466;-70
2021/11/19 11:10:45;;;;;;;2.30;1.03;;;11.50;99.90;;;;;;5051152;28;20535;-70
2021/11/19 11:13:26;;;;;;;1.83;1.73;;;11.50;99.90;;;;;;5051574;28;20456;-69
2021/11/19 11:15:59;;;;;;;0.80;0.70;;;11.50;99.90;;;;;;5050617;28;20521;-70
2021/11/19 11:18:44;;;;;;;1.13;1.10;;;11.50;99.90;;;;;;5041331;28;20429;-70
2021/11/19 11:21:25;;;;;;;0.80;0.67;;;11.50;99.90;;;;;;5066539;28;20500;-70
2021/11/19 11:24:21;;;;;;;0.70;0.50;;;11.60;99.90;;;;;;5043634;28;20417;-70
2021/11/19 11:27:13;;;;;;;1.47;1.37;;;11.50;99.90;;;;;;5052825;28;20413;-70
2021/11/19 11:30:02;;;;;;;1.50;1.40;;;11.60;99.90;;;;;;5062589;28;20532;-70
2021/11/19 11:32:48;;;;;;;1.00;0.93;;;11.60;99.90;;;;;;5054167;28;20914;-71
2021/11/19 11:35:32;;;;;;;2.03;0.93;;;11.60;99.90;;;;;;5047812;28;20445;-71
2021/11/19 11:38:07;;;;;;;1.10;1.00;;;11.70;99.90;;;;;;5053751;28;20416;-71
2021/11/19 11:40:38;;;;;;;2.30;1.43;;;11.80;99.90;;;;;;5053534;28;20456;-71
2021/11/19 11:43:21;;;;;;;1.33;1.23;;;11.80;99.90;;;;;;5054286;28;20489;-71
2021/11/19 11:45:56;;;;;;;2.00;0.93;;;11.80;99.90;;;;;;5054063;28;20933;-71
2021/11/19 11:48:47;;;;;;;1.57;1.47;;;11.90;99.90;;;;;;5053301;28;20798;-71
2021/11/19 11:51:51;;;;;;;1.57;1.47;;;12.00;99.90;;;;;;5053474;28;20424;-71
2021/11/19 11:54:28;;;;;;;0.80;0.80;;;12.00;99.90;;;;;;5053967;28;20991;-71
2021/11/19 11:57:15;;;;;;;2.40;2.30;;;12.00;99.90;;;;;;5051910;28;20508;-70
2021/11/19 12:00:07;;;;;;;1.97;1.80;;;12.00;99.90;;;;;;5053290;28;20502;-70
2021/11/19 12:02:49;;;;;;;1.73;0.90;;;11.90;99.90;;;;;;5042754;28;20441;-70
2021/11/19 12:05:50;;;;;;;2.77;1.30;;;11.80;99.90;;;;;;5054296;28;20775;-71
2021/11/19 12:08:42;;;;;;;0.90;0.80;;;11.80;99.90;;;;;;5056906;28;21072;-71
2021/11/19 12:11:38;;;;;;;0.73;0.63;;;11.90;99.90;;;;;;5030864;28;21031;-71
2021/11/19 12:14:09;;;;;;;1.90;1.80;;;11.90;99.90;;;;;;5056400;28;20418;-71
2021/11/19 12:16:49;;;;;;;1.13;1.13;;;11.90;99.90;;;;;;5057527;28;20417;-71
2021/11/19 12:19:54;;;;;;;1.30;1.10;;;11.90;99.90;;;;;;5073518;28;20441;-71
2021/11/19 12:22:23;;;;;;;1.57;1.47;;;12.00;99.90;;;;;;5057108;28;20421;-71
2021/11/19 12:25:19;;;;;;;2.17;1.97;;;12.00;99.90;;;;;;5056610;28;20428;-71
2021/11/19 12:27:51;;;;;;;0.80;0.53;;;12.10;99.90;;;;;;5056962;28;20417;-71
2021/11/19 12:30:39;;;;;;;1.10;0.90;;;12.10;99.90;;;;;;5056990;28;20513;-71
2021/11/19 12:33:05;;;;;;;1.40;1.07;;;12.00;99.90;;;;;;5057479;28;20413;-71
2021/11/19 12:35:59;;;;;;;0.90;0.90;;;12.10;99.90;;;;;;5056600;28;20424;-71
2021/11/19 12:38:30;;;;;;;2.30;1.50;;;12.10;99.90;;;;;;5055827;28;20594;-70
2021/11/19 12:41:33;;;;;;;1.13;1.07;;;12.10;99.90;;;;;;5057100;28;20453;-70
2021/11/19 12:44:30;;;;;;;4.43;1.47;;;12.20;99.90;;;;;;5046773;28;20409;-71
2021/11/19 12:47:05;;;;;;;1.00;0.90;;;12.20;99.90;;;;;;5055060;28;20417;-71
2021/11/19 12:50:08;;;;;;;1.63;1.53;;;12.30;99.90;;;;;;5054875;28;21024;-71
2021/11/19 12:53:01;;;;;;;0.83;0.83;;;12.30;99.90;;;;;;5051373;28;20412;-71
2021/11/19 12:55:36;;;;;;;1.23;1.07;;;12.30;99.90;;;;;;5049197;28;20508;-70
2021/11/19 12:58:24;;;;;;;1.73;1.20;;;12.20;99.90;;;;;;5054377;28;20456;-70
2021/11/19 13:01:08;;;;;;;5.63;3.00;;;12.40;99.90;;;;;;5052829;28;20452;-70
2021/11/19 13:03:52;;;;;;;0.80;0.60;;;12.30;99.90;;;;;;5054245;28;20778;-70
2021/11/19 13:06:39;;;;;;;2.83;2.50;;;12.40;99.90;;;;;;5053861;28;20516;-70
2021/11/19 13:09:13;;;;;;;3.73;1.70;;;12.30;99.90;;;;;;5054206;28;20429;-70
2021/11/19 13:12:01;;;;;;;2.17;1.97;;;12.30;99.90;;;;;;5053752;28;20439;-70
2021/11/19 13:14:30;;;;;;;1.03;0.93;;;12.20;99.90;;;;;;5039783;28;20926;-70